Can Warship 707 — CGBV — position and weather

sailwx.info

Track history (hours):
 
Tides and Currents Weather Stations Pressure Air Temp Water Temp Dewpoint Dewpoint Depression Visibility Wind Speed Wind Dir Waves Ship Positions

Can Warship 707

Last reported at 2015-Nov-04 16:10 UTC. Time now 2016-Feb-10 04:47 UTC.
Position N 36°00' W 008°02'.
Warning: this ship's position is months out of date.

Length 55 m; draft 5 m.

Type: Military. MMSI: 316200000.

Date/timePositionNaut miles runAvg speedWind from/ knotsBaromVisibWave heightAir tempDewpointWater temp
2015-Nov-04 16:10N 36°00' W 008°02'  
2015-Oct-30 04:31N 36°01' W 005°49'13 6.5
2015-Oct-30 02:33N 35°57' W 005°34'9 9.0
2015-Oct-30 01:33N 36°00' W 005°23'8 8.4
2015-Oct-30 00:33N 36°03' W 005°13'217 8.0
2015-Oct-28 21:32N 37°26' W 001°04'8 7.8
2015-Oct-28 20:33N 37°33' W 000°60'3 0.5
2015-Oct-28 15:33N 37°35' W 000°59'3 0.6
2015-Oct-28 10:33N 37°32' W 000°60'9 8.9
2015-Oct-28 09:31N 37°30' W 001°11'3 2.8
2015-Oct-28 08:33N 37°28' W 001°14'7 6.7
2015-Oct-28 07:33N 37°28' W 001°06'7 6.9
2015-Oct-28 06:33N 37°26' W 000°57'7 6.8
2015-Oct-28 05:34N 37°22' W 000°50'6 6.0
2015-Oct-28 04:33N 37°18' W 000°45'5 5.3
2015-Oct-28 03:32N 37°13' W 000°42'16 5.2
2015-Oct-28 00:32N 36°58' W 000°40'18 5.4
2015-Oct-27 21:13N 37°03' W 001°02'5 7.8
2015-Oct-27 20:32N 37°06' W 001°07'16 8.0
2015-Oct-27 18:28N 37°17' W 001°22'9 0.9
2015-Oct-27 08:17N 37°24' W 001°31'  
Track history (hours):
 
Tides and Currents Weather Stations Pressure Air Temp Water Temp Dewpoint Dewpoint Depression Visibility Wind Speed Wind Dir Waves Ship Positions

Can Warship 707

Last reported at 2015-Nov-04 16:10 UTC. Time now 2016-Feb-10 04:47 UTC.
Position N 36°00' W 008°02'.
Warning: this ship's position is months out of date.

Length 55 m; draft 5 m.

Type: Military. MMSI: 316200000.

Date/timePositionNaut miles runAvg speedWind from/ knotsBaromVisibWave heightAir tempDewpointWater temp
2015-Nov-04 16:10N 36°00' W 008°02'  
2015-Oct-30 04:31N 36°01' W 005°49'13 6.5
2015-Oct-30 02:33N 35°57' W 005°34'9 9.0
2015-Oct-30 01:33N 36°00' W 005°23'8 8.4
2015-Oct-30 00:33N 36°03' W 005°13'217 8.0
2015-Oct-28 21:32N 37°26' W 001°04'8 7.8
2015-Oct-28 20:33N 37°33' W 000°60'3 0.5
2015-Oct-28 15:33N 37°35' W 000°59'3 0.6
2015-Oct-28 10:33N 37°32' W 000°60'9 8.9
2015-Oct-28 09:31N 37°30' W 001°11'3 2.8
2015-Oct-28 08:33N 37°28' W 001°14'7 6.7
2015-Oct-28 07:33N 37°28' W 001°06'7 6.9
2015-Oct-28 06:33N 37°26' W 000°57'7 6.8
2015-Oct-28 05:34N 37°22' W 000°50'6 6.0
2015-Oct-28 04:33N 37°18' W 000°45'5 5.3
2015-Oct-28 03:32N 37°13' W 000°42'16 5.2
2015-Oct-28 00:32N 36°58' W 000°40'18 5.4
2015-Oct-27 21:13N 37°03' W 001°02'5 7.8
2015-Oct-27 20:32N 37°06' W 001°07'16 8.0
2015-Oct-27 18:28N 37°17' W 001°22'9 0.9
2015-Oct-27 08:17N 37°24' W 001°31'  

Dump ship's entire track history